Cottage Grove, Tennessee
Current Conditions -  °F | °C
As of 3:15 PM on Friday 28 Nov 2014 (Local Time) from KPHT Reporting Station
Clear Clear  
Wind Chill: 41°   Ceiling: Unl
Heat Index: 46°   Visibility: 10mi
Dew Point: 25°   Wind: 12mph
Humidity: 43%   Direction: 170°S
Pressure: 30.17"   Gusts: NA
Location:  36.38°N, 88.48°W
Report Text: KPHT 282115Z AUTO 17010KT 10SM CLR 08/M04 A3017 RMK
Loading
Personal Weather Stations






























Interactive Weather Map New forecast layout! Learn more

10-Day Weather Forecast

Advertisements
Track Severe Weather on mobile